Time;durP1;ratioP1;P1;durP2;ratioP2;P2;SDS_P1;SDS_P2;PMS_P1;PMS_P2;Temp;Humidity;BMP_temperature;BMP_pressure;BME280_temperature;BME280_humidity;BME280_pressure;Samples;Min_cycle;Max_cycle;Signal;HPM_P1;HPM_P2
2022/03/15 00:00:45;;;;;;;25.55;8.07;;;;;;;;;;5072346;28;20212;-68
2022/03/15 00:03:12;;;;;;;26.40;8.65;;;;;;;;;;5071818;28;20892;-68
2022/03/15 00:05:40;;;;;;;33.30;10.77;;;;;;;;;;5071925;28;20740;-68
2022/03/15 00:08:08;;;;;;;24.98;8.07;;;;;;;;;;5072236;28;20315;-68
2022/03/15 00:10:35;;;;;;;24.67;8.45;;;;;;;;;;5065220;28;20263;-69
2022/03/15 00:13:02;;;;;;;29.05;8.73;;;;;;;;;;5071714;28;20212;-69
2022/03/15 00:15:30;;;;;;;25.00;8.55;;;;;;;;;;5071770;28;20235;-68
2022/03/15 00:17:59;;;;;;;23.88;7.82;;;;;;;;;;5071765;28;20232;-68
2022/03/15 00:20:27;;;;;;;24.88;8.57;;;;;;;;;;5072046;28;20223;-68
2022/03/15 00:22:57;;;;;;;31.25;9.35;;;;;;;;;;5071618;28;20669;-68
2022/03/15 00:25:26;;;;;;;30.83;10.48;;;;;;;;;;5071718;28;20754;-69
2022/03/15 00:27:55;;;;;;;22.15;7.85;;;;;;;;;;5071777;28;20307;-69
2022/03/15 00:30:23;;;;;;;25.58;9.07;;;;;;;;;;5071669;28;20719;-71
2022/03/15 00:32:51;;;;;;;30.20;8.32;;;;;;;;;;5071868;28;20204;-68
2022/03/15 00:35:25;;;;;;;31.45;9.52;;;;;;;;;;5071314;28;20264;-68
2022/03/15 00:37:53;;;;;;;29.33;7.90;;;;;;;;;;5071683;28;20212;-68
2022/03/15 00:40:21;;;;;;;30.77;9.80;;;;;;;;;;5071408;28;20216;-69
2022/03/15 00:42:51;;;;;;;28.42;10.13;;;;;;;;;;5071522;28;20212;-68
2022/03/15 00:45:19;;;;;;;29.58;10.05;;;;;;;;;;5071426;28;20607;-68
2022/03/15 00:47:47;;;;;;;32.05;10.05;;;;;;;;;;5071371;28;20212;-68
2022/03/15 00:50:14;;;;;;;23.27;7.05;;;;;;;;;;5071259;28;20596;-69
2022/03/15 00:52:44;;;;;;;29.50;9.25;;;;;;;;;;5071108;28;20212;-68
2022/03/15 00:55:11;;;;;;;20.92;6.82;;;;;;;;;;5070884;28;20236;-68
2022/03/15 00:57:39;;;;;;;30.95;10.15;;;;;;;;;;5071259;28;20219;-69
2022/03/15 01:00:08;;;;;;;29.25;8.93;;;;;;;;;;5071124;28;20204;-68
2022/03/15 01:02:35;;;;;;;27.58;8.98;;;;;;;;;;5071064;28;20210;-68
2022/03/15 01:05:03;;;;;;;26.70;8.63;;;;;;;;;;5070917;28;20240;-69
2022/03/15 01:07:31;;;;;;;28.50;8.95;;;;;;;;;;5070823;28;20233;-68
2022/03/15 01:10:00;;;;;;;39.85;11.60;;;;;;;;;;5071140;28;21126;-68
2022/03/15 01:12:27;;;;;;;30.23;10.40;;;;;;;;;;5070906;28;20283;-68
2022/03/15 01:14:54;;;;;;;26.63;9.05;;;;;;;;;;5070861;28;20235;-69
2022/03/15 01:17:24;;;;;;;23.65;8.30;;;;;;;;;;5070711;28;20204;-69
2022/03/15 01:19:51;;;;;;;28.73;8.77;;;;;;;;;;5070892;28;20204;-68
2022/03/15 01:22:19;;;;;;;29.55;7.65;;;;;;;;;;5070836;28;20216;-68
2022/03/15 01:24:46;;;;;;;25.05;8.35;;;;;;;;;;5070920;28;20330;-68
2022/03/15 01:27:15;;;;;;;29.25;9.52;;;;;;;;;;5070606;28;20204;-69
2022/03/15 01:29:43;;;;;;;31.40;10.00;;;;;;;;;;5070709;28;20201;-68
2022/03/15 01:32:10;;;;;;;30.60;8.27;;;;;;;;;;5070804;28;20213;-68
2022/03/15 01:34:38;;;;;;;29.67;8.85;;;;;;;;;;5070513;28;20224;-69
2022/03/15 01:37:06;;;;;;;21.70;7.10;;;;;;;;;;5070515;28;20212;-68
2022/03/15 01:39:34;;;;;;;24.02;8.27;;;;;;;;;;5070687;28;20204;-69
2022/03/15 01:42:01;;;;;;;22.58;7.30;;;;;;;;;;5070842;28;20208;-68
2022/03/15 01:44:33;;;;;;;25.25;8.00;;;;;;;;;;5070473;28;20214;-68
2022/03/15 01:47:01;;;;;;;25.85;9.07;;;;;;;;;;5070316;28;20212;-69
2022/03/15 01:49:28;;;;;;;25.42;8.85;;;;;;;;;;5070257;28;20205;-68
2022/03/15 01:51:56;;;;;;;31.13;9.05;;;;;;;;;;5070682;28;20225;-68
2022/03/15 01:54:24;;;;;;;22.08;7.47;;;;;;;;;;5070583;28;20347;-68
2022/03/15 01:56:51;;;;;;;25.13;7.53;;;;;;;;;;5070469;28;20213;-68
2022/03/15 01:59:19;;;;;;;22.00;8.05;;;;;;;;;;5070338;28;20519;-68
2022/03/15 02:01:48;;;;;;;25.63;8.00;;;;;;;;;;5070197;28;20215;-69
2022/03/15 02:04:16;;;;;;;26.30;7.68;;;;;;;;;;5070365;28;20218;-68
2022/03/15 02:06:44;;;;;;;23.92;7.18;;;;;;;;;;5070784;28;20209;-68
2022/03/15 02:09:12;;;;;;;23.73;8.80;;;;;;;;;;5070291;28;20208;-68
2022/03/15 02:11:40;;;;;;;24.48;8.02;;;;;;;;;;5070747;28;20574;-68
2022/03/15 02:14:08;;;;;;;23.10;6.80;;;;;;;;;;5070195;28;20586;-68
2022/03/15 02:16:36;;;;;;;26.52;8.82;;;;;;;;;;5070080;28;20204;-69
2022/03/15 02:19:05;;;;;;;26.25;8.15;;;;;;;;;;5070220;28;20291;-69
2022/03/15 02:21:36;;;;;;;24.33;7.18;;;;;;;;;;5073107;28;20265;-68
2022/03/15 02:24:04;;;;;;;25.65;8.32;;;;;;;;;;5074175;28;20291;-68
2022/03/15 02:26:33;;;;;;;33.53;9.63;;;;;;;;;;5074117;28;20211;-68
2022/03/15 02:29:00;;;;;;;23.20;7.78;;;;;;;;;;5067104;28;20669;-68
2022/03/15 02:31:28;;;;;;;25.38;7.95;;;;;;;;;;5074100;28;20204;-68
2022/03/15 02:33:55;;;;;;;22.30;7.03;;;;;;;;;;5073763;28;20661;-68
2022/03/15 02:36:22;;;;;;;27.85;7.43;;;;;;;;;;5073846;28;20232;-68
2022/03/15 02:38:51;;;;;;;24.48;8.65;;;;;;;;;;5073948;28;20213;-68
2022/03/15 02:41:19;;;;;;;24.73;7.90;;;;;;;;;;5073437;28;20216;-68
2022/03/15 02:43:48;;;;;;;24.42;7.70;;;;;;;;;;5073711;28;20216;-68
2022/03/15 02:46:15;;;;;;;21.75;6.60;;;;;;;;;;5073594;28;20220;-68
2022/03/15 02:48:43;;;;;;;22.75;7.90;;;;;;;;;;5073814;28;20594;-68
2022/03/15 02:51:11;;;;;;;27.80;8.68;;;;;;;;;;5073485;28;20208;-68
2022/03/15 02:53:39;;;;;;;23.55;6.82;;;;;;;;;;5073405;28;20669;-68
2022/03/15 02:56:11;;;;;;;25.95;7.05;;;;;;;;;;5073289;28;20328;-68
2022/03/15 02:58:38;;;;;;;24.17;8.27;;;;;;;;;;5073708;28;20205;-69
2022/03/15 03:01:07;;;;;;;24.67;7.00;;;;;;;;;;5073300;28;20200;-68
2022/03/15 03:03:35;;;;;;;23.63;6.82;;;;;;;;;;5073412;28;20208;-69
2022/03/15 03:06:02;;;;;;;28.20;8.00;;;;;;;;;;5073160;28;20319;-68
2022/03/15 03:08:31;;;;;;;22.65;7.63;;;;;;;;;;5073077;28;20311;-69
2022/03/15 03:10:58;;;;;;;22.90;7.95;;;;;;;;;;5073380;28;20229;-68
2022/03/15 03:13:27;;;;;;;21.13;8.02;;;;;;;;;;5066677;28;20204;-68
2022/03/15 03:15:57;;;;;;;27.25;8.02;;;;;;;;;;5073121;28;20250;-69
2022/03/15 03:18:32;;;;;;;21.70;7.35;;;;;;;;;;5073091;28;20253;-68
2022/03/15 03:21:01;;;;;;;20.38;7.25;;;;;;;;;;5072949;28;20208;-69
2022/03/15 03:23:28;;;;;;;24.95;8.10;;;;;;;;;;5073497;28;20574;-68
2022/03/15 03:25:56;;;;;;;23.48;7.88;;;;;;;;;;5072785;28;20681;-69
2022/03/15 03:28:24;;;;;;;28.48;8.40;;;;;;;;;;5072794;28;20212;-68
2022/03/15 03:30:53;;;;;;;24.85;7.72;;;;;;;;;;5072685;28;20215;-68
2022/03/15 03:33:22;;;;;;;24.67;7.72;;;;;;;;;;5071451;28;20591;-68
2022/03/15 03:35:50;;;;;;;24.52;8.25;;;;;;;;;;5073063;28;20293;-68
2022/03/15 03:38:18;;;;;;;28.08;7.60;;;;;;;;;;5072834;28;20201;-69
2022/03/15 03:40:46;;;;;;;24.58;6.53;;;;;;;;;;5072998;28;20219;-69
2022/03/15 03:43:13;;;;;;;27.70;7.95;;;;;;;;;;5072507;28;20283;-68
2022/03/15 03:45:41;;;;;;;23.55;6.88;;;;;;;;;;5072525;28;20299;-68
2022/03/15 03:48:09;;;;;;;25.20;6.75;;;;;;;;;;5072318;28;20644;-68
2022/03/15 03:50:38;;;;;;;24.80;7.60;;;;;;;;;;5072714;28;20217;-68
2022/03/15 03:53:07;;;;;;;22.85;8.10;;;;;;;;;;5072125;28;20217;-69
2022/03/15 03:55:34;;;;;;;22.02;6.97;;;;;;;;;;5072278;28;20228;-68
2022/03/15 03:58:02;;;;;;;23.70;6.75;;;;;;;;;;5072252;28;20300;-68
2022/03/15 04:00:29;;;;;;;23.08;7.50;;;;;;;;;;5072405;28;20219;-70
2022/03/15 04:03:00;;;;;;;20.95;6.82;;;;;;;;;;5065340;28;20220;-68
2022/03/15 04:05:30;;;;;;;23.73;7.50;;;;;;;;;;5072295;28;20259;-68
2022/03/15 04:07:59;;;;;;;18.40;5.97;;;;;;;;;;5072550;28;20293;-68
2022/03/15 04:10:28;;;;;;;26.50;8.30;;;;;;;;;;5072044;28;20617;-68
2022/03/15 04:12:56;;;;;;;22.50;8.20;;;;;;;;;;5071925;28;20215;-68
2022/03/15 04:15:24;;;;;;;26.98;8.80;;;;;;;;;;5071734;28;20380;-68
2022/03/15 04:17:51;;;;;;;28.20;7.38;;;;;;;;;;5071979;28;20223;-68
2022/03/15 04:20:19;;;;;;;26.25;7.93;;;;;;;;;;5071824;28;20212;-68
2022/03/15 04:22:47;;;;;;;34.15;11.10;;;;;;;;;;5071887;28;20299;-68
2022/03/15 04:25:15;;;;;;;126.22;39.30;;;;;;;;;;5071579;28;20209;-69
2022/03/15 04:27:45;;;;;;;51.65;16.20;;;;;;;;;;5071732;28;20223;-68
2022/03/15 04:30:14;;;;;;;44.67;12.50;;;;;;;;;;5071895;28;20204;-68
2022/03/15 04:32:41;;;;;;;36.47;14.25;;;;;;;;;;5071632;28;20207;-69
2022/03/15 04:35:09;;;;;;;39.67;13.77;;;;;;;;;;5071171;28;20228;-68
2022/03/15 04:37:36;;;;;;;31.27;12.20;;;;;;;;;;5071547;28;20281;-68
2022/03/15 04:40:07;;;;;;;38.70;13.20;;;;;;;;;;5071359;28;20205;-68
2022/03/15 04:42:35;;;;;;;29.10;10.13;;;;;;;;;;5071431;28;20240;-68
2022/03/15 04:45:03;;;;;;;35.95;13.02;;;;;;;;;;5071215;28;20209;-68
2022/03/15 04:47:31;;;;;;;26.33;10.05;;;;;;;;;;5071310;28;20201;-68
2022/03/15 04:49:58;;;;;;;27.02;8.93;;;;;;;;;;5071410;28;20209;-68
2022/03/15 04:52:26;;;;;;;22.73;7.60;;;;;;;;;;5071212;28;20204;-68
2022/03/15 04:54:53;;;;;;;23.88;8.70;;;;;;;;;;5070948;28;20211;-68
2022/03/15 04:57:22;;;;;;;27.27;8.82;;;;;;;;;;5070923;28;20214;-68
2022/03/15 04:59:49;;;;;;;26.45;8.73;;;;;;;;;;5071441;28;20674;-69
2022/03/15 05:02:17;;;;;;;32.30;9.60;;;;;;;;;;5071091;28;20204;-69
2022/03/15 05:04:45;;;;;;;31.10;10.45;;;;;;;;;;5070852;28;20733;-69
2022/03/15 05:07:12;;;;;;;33.70;10.93;;;;;;;;;;5070499;28;20725;-69
2022/03/15 05:11:06;;;;;;;106.57;33.10;;;;;;;;;;5070837;28;20208;-70
2022/03/15 05:12:28;;;;;;;87.82;32.38;;;;;;;;;;5070664;28;20291;-70
2022/03/15 05:14:55;;;;;;;131.80;41.92;;;;;;;;;;5070949;28;20213;-70
2022/03/15 05:17:24;;;;;;;146.05;55.20;;;;;;;;;;5070401;28;20234;-69
2022/03/15 05:19:51;;;;;;;136.77;55.70;;;;;;;;;;5063733;28;20214;-69
2022/03/15 05:22:21;;;;;;;75.85;33.08;;;;;;;;;;5070535;28;20213;-69
2022/03/15 05:24:48;;;;;;;51.88;26.20;;;;;;;;;;5070630;28;20235;-70
2022/03/15 05:27:16;;;;;;;34.30;14.85;;;;;;;;;;5070514;28;20300;-69
2022/03/15 05:29:45;;;;;;;28.23;11.30;;;;;;;;;;5070558;28;20635;-69
2022/03/15 05:32:12;;;;;;;30.55;12.77;;;;;;;;;;5070373;28;20217;-69
2022/03/15 05:34:41;;;;;;;30.77;10.83;;;;;;;;;;5070380;28;20214;-70
2022/03/15 05:37:08;;;;;;;28.10;11.63;;;;;;;;;;5070142;28;21042;-69
2022/03/15 05:39:36;;;;;;;30.20;12.40;;;;;;;;;;5070764;28;20507;-70
2022/03/15 05:42:04;;;;;;;24.33;9.33;;;;;;;;;;5063534;28;20439;-70
2022/03/15 05:44:31;;;;;;;29.20;12.30;;;;;;;;;;5070506;28;20445;-71
2022/03/15 05:47:00;;;;;;;29.50;11.67;;;;;;;;;;5070356;28;20848;-70
2022/03/15 05:49:27;;;;;;;29.87;13.23;;;;;;;;;;5070386;28;20940;-70
2022/03/15 05:51:55;;;;;;;28.97;12.67;;;;;;;;;;5070509;28;20454;-70
2022/03/15 05:54:22;;;;;;;32.20;12.67;;;;;;;;;;5070233;28;20453;-69
2022/03/15 05:56:50;;;;;;;37.60;12.90;;;;;;;;;;5073918;28;20498;-70
2022/03/15 05:59:17;;;;;;;32.83;12.87;;;;;;;;;;5074160;28;20450;-70
2022/03/15 06:01:45;;;;;;;29.67;11.70;;;;;;;;;;5074518;28;20783;-70
2022/03/15 06:04:13;;;;;;;32.08;11.48;;;;;;;;;;5074673;28;20462;-69
2022/03/15 06:06:41;;;;;;;26.50;11.07;;;;;;;;;;5074293;28;20216;-69
2022/03/15 06:09:10;;;;;;;24.60;9.07;;;;;;;;;;5074069;28;20480;-69
2022/03/15 06:11:39;;;;;;;27.37;9.63;;;;;;;;;;5074166;28;20450;-69
2022/03/15 06:14:07;;;;;;;27.17;10.83;;;;;;;;;;5073979;28;20443;-70
2022/03/15 06:16:34;;;;;;;25.40;10.20;;;;;;;;;;5074037;28;20860;-70
2022/03/15 06:19:02;;;;;;;29.23;10.73;;;;;;;;;;5073887;28;20434;-71
2022/03/15 06:21:31;;;;;;;27.47;10.63;;;;;;;;;;5074040;28;20461;-71
2022/03/15 06:24:00;;;;;;;27.30;10.80;;;;;;;;;;5074122;28;20882;-69
2022/03/15 06:26:29;;;;;;;27.23;10.43;;;;;;;;;;5073723;28;20531;-70
2022/03/15 06:28:58;;;;;;;25.03;10.80;;;;;;;;;;5074036;28;20459;-70
2022/03/15 06:31:27;;;;;;;25.63;10.23;;;;;;;;;;5073805;28;20458;-70
2022/03/15 06:33:54;;;;;;;27.30;12.03;;;;;;;;;;5073732;28;20463;-70
2022/03/15 06:36:21;;;;;;;34.47;11.07;;;;;;;;;;5073646;28;20482;-70
2022/03/15 06:38:50;;;;;;;26.10;11.30;;;;;;;;;;5073573;28;20453;-70
2022/03/15 06:41:18;;;;;;;29.40;12.80;;;;;;;;;;5073290;28;20507;-70
2022/03/15 06:43:46;;;;;;;26.27;10.03;;;;;;;;;;5073609;28;20465;-71
2022/03/15 06:46:13;;;;;;;26.90;11.17;;;;;;;;;;5073684;28;20454;-70
2022/03/15 06:48:41;;;;;;;26.40;12.57;;;;;;;;;;5073376;28;20445;-70
2022/03/15 06:51:08;;;;;;;33.33;14.00;;;;;;;;;;5073160;28;20933;-70
2022/03/15 06:53:35;;;;;;;26.10;10.73;;;;;;;;;;5073231;28;20446;-70
2022/03/15 06:56:04;;;;;;;25.00;10.00;;;;;;;;;;5073191;28;20478;-70
2022/03/15 06:58:32;;;;;;;22.13;7.60;;;;;;;;;;5073239;28;20451;-70
2022/03/15 07:01:00;;;;;;;21.33;6.80;;;;;;;;;;5073066;28;20557;-70
2022/03/15 07:03:28;;;;;;;20.00;7.17;;;;;;;;;;5073267;28;20464;-71
2022/03/15 07:05:55;;;;;;;20.83;7.77;;;;;;;;;;5072898;28;20488;-70
2022/03/15 07:08:23;;;;;;;21.87;6.93;;;;;;;;;;5066599;28;20477;-70
2022/03/15 07:10:51;;;;;;;19.63;7.00;;;;;;;;;;5073226;28;20545;-70
2022/03/15 07:13:20;;;;;;;26.83;7.87;;;;;;;;;;5072766;28;20957;-70
2022/03/15 07:15:48;;;;;;;22.30;8.50;;;;;;;;;;5073169;28;20462;-70
2022/03/15 07:18:18;;;;;;;22.90;7.80;;;;;;;;;;5072883;28;20460;-70
2022/03/15 07:20:45;;;;;;;22.00;7.93;;;;;;;;;;5072952;28;20463;-70
2022/03/15 07:23:13;;;;;;;20.83;7.13;;;;;;;;;;5072708;28;20470;-70
2022/03/15 07:25:40;;;;;;;22.67;9.07;;;;;;;;;;5072743;28;20455;-71
2022/03/15 07:28:08;;;;;;;21.03;8.23;;;;;;;;;;5072841;28;20885;-71
2022/03/15 07:30:37;;;;;;;19.20;6.67;;;;;;;;;;5072739;28;20825;-70
2022/03/15 07:33:06;;;;;;;21.10;8.13;;;;;;;;;;5072336;28;20508;-70
2022/03/15 07:35:36;;;;;;;20.07;7.57;;;;;;;;;;5072929;28;20476;-71
2022/03/15 07:38:03;;;;;;;25.10;9.10;;;;;;;;;;5072497;28;21011;-70
2022/03/15 07:40:31;;;;;;;22.23;7.50;;;;;;;;;;5072619;28;20853;-70
2022/03/15 07:43:00;;;;;;;22.50;7.10;;;;;;;;;;5072198;28;20443;-73
2022/03/15 07:45:27;;;;;;;20.67;6.70;;;;;;;;;;5072457;28;20944;-71
2022/03/15 07:47:56;;;;;;;20.70;7.70;;;;;;;;;;5072278;28;20447;-70
2022/03/15 07:50:25;;;;;;;22.77;7.80;;;;;;;;;;5072392;28;20537;-70
2022/03/15 07:52:53;;;;;;;20.40;7.10;;;;;;;;;;5072526;28;20453;-70
2022/03/15 07:55:21;;;;;;;20.73;7.40;;;;;;;;;;5072172;28;20454;-71
2022/03/15 07:57:48;;;;;;;20.97;7.60;;;;;;;;;;5072182;28;20542;-70
2022/03/15 08:00:17;;;;;;;19.30;6.80;;;;;;;;;;5071940;28;20466;-70
2022/03/15 08:02:44;;;;;;;20.23;7.90;;;;;;;;;;5072074;28;20443;-70
2022/03/15 08:05:13;;;;;;;21.07;7.80;;;;;;;;;;5071689;28;20482;-70
2022/03/15 08:07:40;;;;;;;19.13;6.57;;;;;;;;;;5071780;28;20566;-70
2022/03/15 08:10:10;;;;;;;21.43;7.53;;;;;;;;;;5072333;28;20456;-70
2022/03/15 08:12:38;;;;;;;21.07;8.10;;;;;;;;;;5071701;28;20445;-70
2022/03/15 08:15:05;;;;;;;21.73;8.90;;;;;;;;;;5071867;28;20480;-71
2022/03/15 08:17:33;;;;;;;24.90;7.60;;;;;;;;;;5064573;28;20488;-70
2022/03/15 08:20:01;;;;;;;20.20;7.97;;;;;;;;;;5071492;28;20466;-70
2022/03/15 08:22:30;;;;;;;19.20;7.13;;;;;;;;;;5071718;28;20447;-70
2022/03/15 08:24:58;;;;;;;25.07;7.67;;;;;;;;;;5071572;28;20928;-70
2022/03/15 08:27:26;;;;;;;22.00;9.30;;;;;;;;;;5071529;28;20971;-70
2022/03/15 08:29:54;;;;;;;21.40;8.07;;;;;;;;;;5071609;28;20439;-70
2022/03/15 08:32:21;;;;;;;23.97;8.83;;;;;;;;;;5071355;28;20457;-70
2022/03/15 08:34:48;;;;;;;23.50;9.97;;;;;;;;;;5071620;28;20443;-70
2022/03/15 08:37:16;;;;;;;22.30;8.00;;;;;;;;;;5071219;28;20490;-70
2022/03/15 08:39:45;;;;;;;27.00;9.60;;;;;;;;;;5071371;28;20809;-70
2022/03/15 08:42:12;;;;;;;21.97;7.50;;;;;;;;;;5071167;28;21166;-69
2022/03/15 08:44:41;;;;;;;24.20;8.17;;;;;;;;;;5071338;28;20443;-70
2022/03/15 08:47:08;;;;;;;19.83;6.73;;;;;;;;;;5071022;28;20454;-70
2022/03/15 08:49:36;;;;;;;25.00;7.73;;;;;;;;;;5071229;28;20454;-70
2022/03/15 08:52:03;;;;;;;20.67;7.40;;;;;;;;;;5071115;28;20454;-70
2022/03/15 08:54:31;;;;;;;22.50;6.13;;;;;;;;;;5070968;28;20448;-70
2022/03/15 08:57:00;;;;;;;20.67;7.23;;;;;;;;;;5070932;28;20487;-70
2022/03/15 08:59:27;;;;;;;21.03;6.73;;;;;;;;;;5071114;28;20451;-70
2022/03/15 09:01:56;;;;;;;23.90;8.70;;;;;;;;;;5071016;28;20813;-70
2022/03/15 09:04:25;;;;;;;22.40;7.20;;;;;;;;;;5071091;28;20874;-71
2022/03/15 09:06:52;;;;;;;24.57;6.57;;;;;;;;;;5070617;28;20999;-70
2022/03/15 09:09:21;;;;;;;20.63;7.10;;;;;;;;;;5070733;28;20490;-70
2022/03/15 09:11:48;;;;;;;22.10;6.90;;;;;;;;;;5070718;28;20447;-69
2022/03/15 09:14:17;;;;;;;23.77;6.80;;;;;;;;;;5070770;28;20442;-70
2022/03/15 09:16:45;;;;;;;21.50;7.40;;;;;;;;;;5070596;28;20478;-70
2022/03/15 09:19:14;;;;;;;23.93;7.20;;;;;;;;;;5070436;28;20454;-70
2022/03/15 09:21:43;;;;;;;24.43;7.70;;;;;;;;;;5070614;28;20454;-70
2022/03/15 09:24:11;;;;;;;22.77;6.90;;;;;;;;;;5063706;28;20461;-70
2022/03/15 09:26:42;;;;;;;21.10;7.00;;;;;;;;;;5070672;28;20450;-70
2022/03/15 09:29:10;;;;;;;21.10;6.87;;;;;;;;;;5070456;28;20458;-70
2022/03/15 09:31:39;;;;;;;23.30;8.07;;;;;;;;;;5070450;28;20479;-70
2022/03/15 09:34:07;;;;;;;22.87;7.07;;;;;;;;;;5070504;28;20462;-70
2022/03/15 09:36:36;;;;;;;21.83;6.80;;;;;;;;;;5070437;28;20858;-70
2022/03/15 09:39:03;;;;;;;23.30;6.77;;;;;;;;;;5070339;28;20461;-70
2022/03/15 09:41:31;;;;;;;21.70;7.37;;;;;;;;;;5070382;28;20461;-71
2022/03/15 09:43:59;;;;;;;24.70;8.37;;;;;;;;;;5070444;28;20435;-70
2022/03/15 09:46:27;;;;;;;22.23;7.43;;;;;;;;;;5070374;28;20447;-71
2022/03/15 09:48:56;;;;;;;22.33;7.97;;;;;;;;;;5070494;28;21063;-70
2022/03/15 09:51:27;;;;;;;23.47;8.23;;;;;;;;;;5070320;28;20439;-70
2022/03/15 09:53:58;;;;;;;26.73;9.10;;;;;;;;;;5070446;28;20450;-70
2022/03/15 09:56:25;;;;;;;23.40;6.97;;;;;;;;;;5070354;28;20450;-69
2022/03/15 09:58:52;;;;;;;23.03;7.60;;;;;;;;;;5070114;28;20497;-70
2022/03/15 10:01:20;;;;;;;25.00;7.33;;;;;;;;;;5070004;28;20454;-70
2022/03/15 10:03:47;;;;;;;29.80;11.93;;;;;;;;;;5070454;28;20542;-69
2022/03/15 10:06:16;;;;;;;23.30;7.90;;;;;;;;;;5070024;28;20474;-70
2022/03/15 10:08:44;;;;;;;24.60;7.90;;;;;;;;;;5070257;28;20538;-70
2022/03/15 10:11:12;;;;;;;24.53;8.50;;;;;;;;;;5063420;28;20533;-70
2022/03/15 10:13:41;;;;;;;21.90;7.77;;;;;;;;;;5070056;28;21012;-70
2022/03/15 10:16:13;;;;;;;24.87;9.83;;;;;;;;;;5070330;28;20446;-70
2022/03/15 10:18:41;;;;;;;25.27;8.83;;;;;;;;;;5070106;28;20840;-70
2022/03/15 10:21:08;;;;;;;23.50;8.93;;;;;;;;;;5070037;28;20439;-70
2022/03/15 10:23:39;;;;;;;26.17;8.50;;;;;;;;;;5070042;28;20446;-70
2022/03/15 10:26:08;;;;;;;25.17;10.13;;;;;;;;;;5069989;28;20446;-70
2022/03/15 10:28:37;;;;;;;26.20;8.97;;;;;;;;;;5070024;28;20547;-71
2022/03/15 10:31:06;;;;;;;23.93;8.43;;;;;;;;;;5069984;28;20453;-71
2022/03/15 10:33:36;;;;;;;25.73;9.27;;;;;;;;;;5069882;28;20439;-69
2022/03/15 10:36:04;;;;;;;20.97;7.73;;;;;;;;;;5069994;28;20508;-70
2022/03/15 10:38:31;;;;;;;22.33;8.27;;;;;;;;;;5069827;28;20585;-70
2022/03/15 10:41:03;;;;;;;22.50;8.07;;;;;;;;;;5070283;28;20443;-72
2022/03/15 10:43:30;;;;;;;23.00;8.37;;;;;;;;;;5073942;28;20454;-71
2022/03/15 10:46:01;;;;;;;25.10;9.30;;;;;;;;;;5073696;28;20454;-70
2022/03/15 10:48:32;;;;;;;24.50;8.73;;;;;;;;;;5073451;28;20493;-70
2022/03/15 10:51:00;;;;;;;21.23;8.07;;;;;;;;;;5073176;28;20967;-71
2022/03/15 10:53:29;;;;;;;22.63;8.80;;;;;;;;;;5073321;28;20443;-69
2022/03/15 10:56:11;;;;;;;24.10;8.90;;;;;;;;;;5073326;28;20454;-70
2022/03/15 10:58:45;;;;;;;21.90;7.97;;;;;;;;;;5073184;28;20478;-71
2022/03/15 11:01:14;;;;;;;23.87;8.47;;;;;;;;;;5073091;28;20488;-70
2022/03/15 11:03:41;;;;;;;25.80;8.83;;;;;;;;;;5073238;28;20458;-70
2022/03/15 11:06:09;;;;;;;24.70;7.70;;;;;;;;;;5073001;28;21014;-70
2022/03/15 11:08:39;;;;;;;25.23;8.20;;;;;;;;;;5072967;28;20474;-70
2022/03/15 11:11:06;;;;;;;24.53;9.00;;;;;;;;;;5072900;28;20492;-70
2022/03/15 11:13:35;;;;;;;29.37;8.40;;;;;;;;;;5073155;28;20521;-70
2022/03/15 11:16:06;;;;;;;25.20;8.90;;;;;;;;;;5072954;28;20468;-70
2022/03/15 11:18:35;;;;;;;25.53;9.87;;;;;;;;;;5073084;28;20993;-70
2022/03/15 11:21:04;;;;;;;22.47;8.30;;;;;;;;;;5072695;28;20452;-70
2022/03/15 11:23:33;;;;;;;25.00;7.70;;;;;;;;;;5073054;28;20447;-70
2022/03/15 11:26:04;;;;;;;23.10;7.40;;;;;;;;;;5072766;28;20469;-70
2022/03/15 11:28:33;;;;;;;25.33;8.43;;;;;;;;;;5072744;28;20834;-70
2022/03/15 11:31:01;;;;;;;24.17;7.70;;;;;;;;;;5072877;28;20458;-70
2022/03/15 11:33:31;;;;;;;22.90;8.07;;;;;;;;;;5072861;28;20473;-70
2022/03/15 11:36:03;;;;;;;23.10;8.07;;;;;;;;;;5072918;28;20455;-70
2022/03/15 11:38:30;;;;;;;26.30;8.97;;;;;;;;;;5072511;28;21185;-70
2022/03/15 11:40:58;;;;;;;23.90;7.67;;;;;;;;;;5072423;28;20834;-70
2022/03/15 11:43:33;;;;;;;26.93;8.07;;;;;;;;;;5072479;28;20458;-71
2022/03/15 11:46:04;;;;;;;23.37;8.20;;;;;;;;;;5066030;28;20945;-70
2022/03/15 11:48:38;;;;;;;26.00;9.17;;;;;;;;;;5072538;28;20959;-70
2022/03/15 11:51:13;;;;;;;25.27;8.93;;;;;;;;;;5072119;28;20451;-70
2022/03/15 11:53:43;;;;;;;25.23;8.10;;;;;;;;;;5064829;28;20450;-69
2022/03/15 11:56:13;;;;;;;27.43;8.53;;;;;;;;;;5072460;28;20459;-70
2022/03/15 11:58:41;;;;;;;23.43;8.10;;;;;;;;;;5072422;28;20517;-70
2022/03/15 12:01:13;;;;;;;27.37;8.97;;;;;;;;;;5071964;28;20450;-70
2022/03/15 12:03:47;;;;;;;24.10;7.80;;;;;;;;;;5072262;28;20627;-71
2022/03/15 12:06:19;;;;;;;22.70;7.83;;;;;;;;;;5072061;28;20996;-69
2022/03/15 12:08:53;;;;;;;21.53;7.00;;;;;;;;;;5072201;28;20529;-70
2022/03/15 12:11:32;;;;;;;23.10;7.30;;;;;;;;;;5071923;28;20845;-70
2022/03/15 12:14:03;;;;;;;26.70;8.57;;;;;;;;;;5071927;28;20903;-70
2022/03/15 12:16:37;;;;;;;25.67;8.60;;;;;;;;;;5071866;28;20486;-70
2022/03/15 12:19:23;;;;;;;21.90;7.40;;;;;;;;;;5071399;28;20489;-70
2022/03/15 12:21:54;;;;;;;23.47;7.00;;;;;;;;;;5071851;28;20503;-70
2022/03/15 12:24:30;;;;;;;21.33;6.37;;;;;;;;;;5071714;28;20458;-70
2022/03/15 12:27:01;;;;;;;24.53;8.27;;;;;;;;;;5071580;28;21028;-70
2022/03/15 12:29:29;;;;;;;24.37;7.50;;;;;;;;;;5071778;28;20447;-70
2022/03/15 12:31:59;;;;;;;23.70;8.93;;;;;;;;;;5071777;28;20901;-70
2022/03/15 12:34:27;;;;;;;25.90;9.20;;;;;;;;;;5071608;28;20812;-70
2022/03/15 12:36:58;;;;;;;24.27;8.37;;;;;;;;;;5071383;28;20447;-71
2022/03/15 12:39:27;;;;;;;24.37;8.57;;;;;;;;;;5071374;28;20574;-70
2022/03/15 12:42:05;;;;;;;26.30;8.60;;;;;;;;;;5071426;28;20878;-71
2022/03/15 12:44:45;;;;;;;26.17;8.20;;;;;;;;;;5071737;28;20427;-70
2022/03/15 12:47:16;;;;;;;22.33;8.37;;;;;;;;;;5070911;28;20447;-70
2022/03/15 12:49:43;;;;;;;23.80;7.70;;;;;;;;;;5071409;28;20454;-71
2022/03/15 12:52:13;;;;;;;21.97;8.10;;;;;;;;;;5071101;28;20451;-70
2022/03/15 12:54:40;;;;;;;23.37;7.97;;;;;;;;;;5071149;28;20442;-69
2022/03/15 12:57:12;;;;;;;25.40;9.13;;;;;;;;;;5071205;28;20452;-70
2022/03/15 12:59:39;;;;;;;31.10;9.60;;;;;;;;;;5070981;28;21005;-70
2022/03/15 13:02:07;;;;;;;25.10;8.50;;;;;;;;;;5071079;28;20443;-70
2022/03/15 13:04:37;;;;;;;24.10;7.40;;;;;;;;;;5070703;28;20533;-71
2022/03/15 13:07:05;;;;;;;24.90;7.57;;;;;;;;;;5070460;28;20461;-71
2022/03/15 13:09:35;;;;;;;21.47;7.23;;;;;;;;;;5070865;28;20904;-70
2022/03/15 13:12:13;;;;;;;22.80;8.20;;;;;;;;;;5070935;28;20458;-70
2022/03/15 13:14:42;;;;;;;20.67;6.37;;;;;;;;;;5070813;28;20442;-71
2022/03/15 13:17:09;;;;;;;25.73;7.40;;;;;;;;;;5070863;28;20450;-70
2022/03/15 13:19:39;;;;;;;21.07;7.23;;;;;;;;;;5070544;28;20489;-70
2022/03/15 13:22:06;;;;;;;25.10;8.23;;;;;;;;;;5070553;28;20451;-70
2022/03/15 13:24:37;;;;;;;23.20;7.90;;;;;;;;;;5070577;28;20442;-70
2022/03/15 13:27:06;;;;;;;21.90;7.50;;;;;;;;;;5070498;28;20536;-71
2022/03/15 13:29:39;;;;;;;23.50;8.10;;;;;;;;;;5070419;28;20962;-70
2022/03/15 13:32:07;;;;;;;20.40;6.77;;;;;;;;;;5070518;28;20817;-70
2022/03/15 13:34:35;;;;;;;24.30;7.43;;;;;;;;;;5070757;28;20527;-70
2022/03/15 13:37:06;;;;;;;22.10;7.40;;;;;;;;;;5070249;28;20457;-70
2022/03/15 13:39:35;;;;;;;23.10;8.10;;;;;;;;;;5070357;28;20490;-70
2022/03/15 13:42:05;;;;;;;19.47;6.73;;;;;;;;;;5070493;28;20450;-70
2022/03/15 13:44:36;;;;;;;21.70;7.60;;;;;;;;;;5070601;28;20456;-70
2022/03/15 13:47:04;;;;;;;23.87;7.53;;;;;;;;;;5070508;28;20533;-70
2022/03/15 13:49:32;;;;;;;21.60;8.33;;;;;;;;;;5070602;28;20446;-70
2022/03/15 13:52:07;;;;;;;27.60;8.10;;;;;;;;;;5070385;28;20455;-70
2022/03/15 13:54:35;;;;;;;22.13;6.97;;;;;;;;;;5070226;28;20446;-70
2022/03/15 13:57:07;;;;;;;25.60;8.20;;;;;;;;;;5070092;28;20983;-70
2022/03/15 13:59:35;;;;;;;20.40;7.30;;;;;;;;;;5070544;28;20475;-70
2022/03/15 14:02:04;;;;;;;30.50;12.23;;;;;;;;;;5070258;28;20454;-70
2022/03/15 14:04:34;;;;;;;26.17;8.63;;;;;;;;;;5070146;28;20549;-70
2022/03/15 14:07:02;;;;;;;26.83;7.33;;;;;;;;;;5069930;28;20983;-70
2022/03/15 14:09:32;;;;;;;22.17;7.27;;;;;;;;;;5070303;28;20467;-70
2022/03/15 14:12:07;;;;;;;24.83;7.10;;;;;;;;;;5070228;28;20447;-69
2022/03/15 14:14:40;;;;;;;31.13;11.97;;;;;;;;;;5070362;28;20811;-70
2022/03/15 14:17:10;;;;;;;26.73;8.90;;;;;;;;;;5072211;28;20445;-70
2022/03/15 14:19:49;;;;;;;28.57;8.53;;;;;;;;;;5073896;28;20481;-70
2022/03/15 14:22:19;;;;;;;23.93;7.87;;;;;;;;;;5074370;28;20477;-70
2022/03/15 14:24:49;;;;;;;23.43;9.30;;;;;;;;;;5074297;28;20437;-71
2022/03/15 14:27:16;;;;;;;27.30;7.57;;;;;;;;;;5073692;28;20460;-70
2022/03/15 14:29:49;;;;;;;24.80;8.43;;;;;;;;;;5073816;28;20453;-70
2022/03/15 14:32:16;;;;;;;22.83;7.60;;;;;;;;;;5074086;28;20455;-71
2022/03/15 14:34:53;;;;;;;22.57;8.30;;;;;;;;;;5073970;28;20826;-70
2022/03/15 14:37:20;;;;;;;25.40;8.90;;;;;;;;;;5074036;28;20496;-70